Time;durP1;ratioP1;P1;durP2;ratioP2;P2;SDS_P1;SDS_P2;PMS_P1;PMS_P2;Temp;Humidity;BMP_temperature;BMP_pressure;BME280_temperature;BME280_humidity;BME280_pressure;Samples;Min_cycle;Max_cycle;Signal;HPM_P1;HPM_P2
2021/06/13 00:01:34;;;;;;;12.18;4.75;;;;;;;;;;4367829;32;20552;-59
2021/06/13 00:04:00;;;;;;;4.37;3.97;;;;;;;;;;4367181;32;20367;-59
2021/06/13 00:06:26;;;;;;;5.32;3.70;;;;;;;;;;4361398;32;20280;-59
2021/06/13 00:08:51;;;;;;;4.70;3.40;;;;;;;;;;4357076;32;20299;-59
2021/06/13 00:11:17;;;;;;;4.82;4.03;;;;;;;;;;4358109;32;20635;-59
2021/06/13 00:13:43;;;;;;;3.87;3.42;;;;;;;;;;4364343;32;20400;-59
2021/06/13 00:16:09;;;;;;;19.87;13.50;;;;;;;;;;4363925;32;20647;-59
2021/06/13 00:18:35;;;;;;;14.55;10.77;;;;;;;;;;4366837;32;20233;-59
2021/06/13 00:21:00;;;;;;;10.85;6.57;;;;;;;;;;4358254;32;20364;-59
2021/06/13 00:23:26;;;;;;;8.05;4.80;;;;;;;;;;4361845;32;20303;-59
2021/06/13 00:25:51;;;;;;;6.93;5.43;;;;;;;;;;4358194;32;20304;-59
2021/06/13 00:28:17;;;;;;;11.68;4.30;;;;;;;;;;4357760;32;20317;-59
2021/06/13 00:30:43;;;;;;;11.27;4.30;;;;;;;;;;4361768;32;20344;-59
2021/06/13 00:33:08;;;;;;;8.25;4.40;;;;;;;;;;4370310;32;20685;-59
2021/06/13 00:35:34;;;;;;;6.12;4.53;;;;;;;;;;4361737;32;20313;-59
2021/06/13 00:38:00;;;;;;;8.05;4.22;;;;;;;;;;4362417;32;20395;-59
2021/06/13 00:40:27;;;;;;;7.57;4.53;;;;;;;;;;4359015;32;20455;-60
2021/06/13 00:42:54;;;;;;;12.90;5.35;;;;;;;;;;4369001;32;20229;-59
2021/06/13 00:45:20;;;;;;;5.70;4.60;;;;;;;;;;4362049;32;20903;-59
2021/06/13 00:47:47;;;;;;;11.68;3.72;;;;;;;;;;4356029;32;20545;-59
2021/06/13 00:50:16;;;;;;;5.05;3.65;;;;;;;;;;4360343;32;20214;-59
2021/06/13 00:52:43;;;;;;;3.72;3.30;;;;;;;;;;4356350;32;20699;-59
2021/06/13 00:55:09;;;;;;;8.45;4.62;;;;;;;;;;4362068;32;20599;-58
2021/06/13 00:57:35;;;;;;;5.87;3.40;;;;;;;;;;4370730;32;20389;-59
2021/06/13 01:00:01;;;;;;;9.32;3.55;;;;;;;;;;4363621;32;20279;-59
2021/06/13 01:02:26;;;;;;;7.75;4.20;;;;;;;;;;4357370;32;20655;-59
2021/06/13 01:04:51;;;;;;;10.48;4.35;;;;;;;;;;4360584;32;20296;-58
2021/06/13 01:07:35;;;;;;;7.53;3.97;;;;;;;;;;4357104;32;20238;-59
2021/06/13 01:10:45;;;;;;;11.40;5.87;;;;;;;;;;4360243;32;20351;-59
2021/06/13 01:13:37;;;;;;;9.82;5.57;;;;;;;;;;4334585;32;20319;-58
2021/06/13 01:16:12;;;;;;;14.32;6.47;;;;;;;;;;4373118;32;20356;-59
2021/06/13 01:18:48;;;;;;;7.50;5.30;;;;;;;;;;4361763;32;20350;-59
2021/06/13 01:21:19;;;;;;;7.80;4.53;;;;;;;;;;4357027;32;20505;-59
2021/06/13 01:23:45;;;;;;;6.28;5.00;;;;;;;;;;4358421;32;20714;-59
2021/06/13 01:26:45;;;;;;;5.65;4.35;;;;;;;;;;4357187;32;20367;-59
2021/06/13 01:29:14;;;;;;;16.55;4.72;;;;;;;;;;4358500;32;20317;-59
2021/06/13 01:31:45;;;;;;;6.55;4.50;;;;;;;;;;4364218;32;20297;-59
2021/06/13 01:34:15;;;;;;;4.75;4.32;;;;;;;;;;4362657;32;20339;-59
2021/06/13 01:36:43;;;;;;;5.85;4.32;;;;;;;;;;4367465;32;20251;-59
2021/06/13 01:39:17;;;;;;;6.40;4.20;;;;;;;;;;4362023;32;20242;-59
2021/06/13 01:41:45;;;;;;;8.10;4.37;;;;;;;;;;4357649;32;20302;-59
2021/06/13 01:44:11;;;;;;;8.35;3.65;;;;;;;;;;4364179;32;20324;-58
2021/06/13 01:46:40;;;;;;;11.60;4.57;;;;;;;;;;4362977;32;20249;-59
2021/06/13 01:49:06;;;;;;;18.50;5.37;;;;;;;;;;4363022;32;20308;-59
2021/06/13 01:51:32;;;;;;;6.37;3.58;;;;;;;;;;4360496;32;20225;-59
2021/06/13 01:54:01;;;;;;;7.87;3.92;;;;;;;;;;4366257;32;20277;-59
2021/06/13 01:56:27;;;;;;;5.87;3.85;;;;;;;;;;4361671;32;20218;-59
2021/06/13 01:58:56;;;;;;;7.35;3.33;;;;;;;;;;4357343;32;20268;-59
2021/06/13 02:01:23;;;;;;;11.18;4.75;;;;;;;;;;4356351;32;20292;-57
2021/06/13 02:03:51;;;;;;;7.25;3.97;;;;;;;;;;4359287;32;20218;-58
2021/06/13 02:06:21;;;;;;;4.95;4.00;;;;;;;;;;4357477;32;20214;-59
2021/06/13 02:08:48;;;;;;;5.32;3.35;;;;;;;;;;4358824;32;20214;-58
2021/06/13 02:11:14;;;;;;;7.90;3.40;;;;;;;;;;4365162;32;20317;-58
2021/06/13 02:13:44;;;;;;;4.75;3.45;;;;;;;;;;4367487;32;20770;-58
2021/06/13 02:16:10;;;;;;;8.15;3.80;;;;;;;;;;4357022;32;20233;-58
2021/06/13 02:18:38;;;;;;;9.80;3.87;;;;;;;;;;4363024;32;20325;-58
2021/06/13 02:21:07;;;;;;;5.22;4.03;;;;;;;;;;4356532;32;20321;-58
2021/06/13 02:23:33;;;;;;;10.60;4.30;;;;;;;;;;4357150;32;20226;-58
2021/06/13 02:26:00;;;;;;;7.60;4.03;;;;;;;;;;4362749;32;20237;-58
2021/06/13 02:28:27;;;;;;;9.85;3.92;;;;;;;;;;4365025;32;20428;-58
2021/06/13 02:30:54;;;;;;;12.13;4.00;;;;;;;;;;4362157;32;20269;-58
2021/06/13 02:33:21;;;;;;;4.80;3.95;;;;;;;;;;4368725;32;20293;-58
2021/06/13 02:35:50;;;;;;;8.07;4.62;;;;;;;;;;4358201;32;20654;-58
2021/06/13 02:38:17;;;;;;;7.25;4.18;;;;;;;;;;4357896;32;20348;-58
2021/06/13 02:40:44;;;;;;;4.68;4.18;;;;;;;;;;4362529;32;20355;-58
2021/06/13 02:43:10;;;;;;;5.45;3.50;;;;;;;;;;4359633;32;20675;-57
2021/06/13 02:45:36;;;;;;;9.63;3.70;;;;;;;;;;4375651;32;20789;-58
2021/06/13 02:48:02;;;;;;;5.07;3.58;;;;;;;;;;4371498;32;20252;-57
2021/06/13 02:50:28;;;;;;;6.22;4.25;;;;;;;;;;4365004;32;20280;-58
2021/06/13 02:53:26;;;;;;;6.12;4.07;;;;;;;;;;4365660;32;20368;-58
2021/06/13 02:55:59;;;;;;;7.40;3.90;;;;;;;;;;4355710;32;20218;-58
2021/06/13 02:58:39;;;;;;;10.85;4.32;;;;;;;;;;4360269;32;20210;-58
2021/06/13 03:01:06;;;;;;;4.65;4.05;;;;;;;;;;4364693;32;20256;-58
2021/06/13 03:03:33;;;;;;;6.05;4.00;;;;;;;;;;4369117;32;20731;-58
2021/06/13 03:05:59;;;;;;;8.25;4.10;;;;;;;;;;4359283;32;20210;-58
2021/06/13 03:08:24;;;;;;;6.75;4.47;;;;;;;;;;4364985;32;20237;-58
2021/06/13 03:10:52;;;;;;;6.30;3.70;;;;;;;;;;4364585;32;20348;-58
2021/06/13 03:13:25;;;;;;;11.40;3.95;;;;;;;;;;4365547;32;20389;-58
2021/06/13 03:15:51;;;;;;;12.20;4.32;;;;;;;;;;4361001;32;20309;-58
2021/06/13 03:18:18;;;;;;;7.30;4.12;;;;;;;;;;4367837;32;20669;-58
2021/06/13 03:20:44;;;;;;;5.78;3.78;;;;;;;;;;4360289;32;20291;-59
2021/06/13 03:23:11;;;;;;;4.78;3.40;;;;;;;;;;4363997;32;20789;-58
2021/06/13 03:25:37;;;;;;;6.00;4.18;;;;;;;;;;4364340;32;20309;-58
2021/06/13 03:28:04;;;;;;;3.80;3.40;;;;;;;;;;4357088;32;20226;-58
2021/06/13 03:30:29;;;;;;;8.32;4.50;;;;;;;;;;4364729;32;20210;-59
2021/06/13 03:32:55;;;;;;;8.63;3.83;;;;;;;;;;4372089;32;20449;-58
2021/06/13 03:35:22;;;;;;;8.85;3.78;;;;;;;;;;4362749;32;20336;-59
2021/06/13 03:37:48;;;;;;;10.50;4.27;;;;;;;;;;4365055;32;20665;-58
2021/06/13 03:40:15;;;;;;;11.32;3.75;;;;;;;;;;4363444;32;20254;-58
2021/06/13 03:42:41;;;;;;;9.65;5.18;;;;;;;;;;4382436;32;20309;-58
2021/06/13 03:45:08;;;;;;;6.43;3.78;;;;;;;;;;4362612;32;20225;-58
2021/06/13 03:47:34;;;;;;;10.10;5.17;;;;;;;;;;4357595;32;20238;-58
2021/06/13 03:50:00;;;;;;;14.77;4.87;;;;;;;;;;4358957;32;20282;-62
2021/06/13 03:52:28;;;;;;;9.00;4.50;;;;;;;;;;4366995;32;20331;-58
2021/06/13 03:54:53;;;;;;;8.65;4.75;;;;;;;;;;4364700;32;20338;-58
2021/06/13 03:57:21;;;;;;;7.35;5.57;;;;;;;;;;4360632;32;20222;-58
2021/06/13 03:59:47;;;;;;;19.90;8.48;;;;;;;;;;4363472;32;20637;-58
2021/06/13 04:02:14;;;;;;;15.32;5.35;;;;;;;;;;4368142;32;20301;-58
2021/06/13 04:04:47;;;;;;;7.72;4.87;;;;;;;;;;4365508;32;20202;-59
2021/06/13 04:07:14;;;;;;;7.35;5.22;;;;;;;;;;4366614;32;20265;-59
2021/06/13 04:09:42;;;;;;;5.18;4.40;;;;;;;;;;4366446;32;20297;-58
2021/06/13 04:12:09;;;;;;;8.88;5.60;;;;;;;;;;4359814;32;20313;-58
2021/06/13 04:14:35;;;;;;;8.07;5.70;;;;;;;;;;4363521;32;20690;-58
2021/06/13 04:17:01;;;;;;;10.98;4.55;;;;;;;;;;4362793;32;20321;-58
2021/06/13 04:19:28;;;;;;;13.77;5.15;;;;;;;;;;4359100;32;20301;-58
2021/06/13 04:21:54;;;;;;;5.40;4.50;;;;;;;;;;4361200;32;20234;-58
2021/06/13 04:24:21;;;;;;;7.05;5.32;;;;;;;;;;4362092;32;20303;-58
2021/06/13 04:26:47;;;;;;;8.63;5.62;;;;;;;;;;4356868;32;20421;-58
2021/06/13 04:29:13;;;;;;;15.43;6.20;;;;;;;;;;4368014;32;20263;-58
2021/06/13 04:31:39;;;;;;;7.17;5.57;;;;;;;;;;4363683;32;20613;-57
2021/06/13 04:34:05;;;;;;;11.27;5.77;;;;;;;;;;4361946;32;20210;-58
2021/06/13 04:36:31;;;;;;;7.20;4.70;;;;;;;;;;4355958;32;20375;-58
2021/06/13 04:38:56;;;;;;;6.70;4.93;;;;;;;;;;4358394;32;20294;-58
2021/06/13 04:41:22;;;;;;;10.43;5.00;;;;;;;;;;4365929;32;20275;-58
2021/06/13 04:43:47;;;;;;;12.07;4.77;;;;;;;;;;4368339;32;20665;-58
2021/06/13 04:46:17;;;;;;;9.97;5.37;;;;;;;;;;4363191;32;20750;-58
2021/06/13 04:48:42;;;;;;;7.35;5.00;;;;;;;;;;4363788;32;20240;-58
2021/06/13 04:51:10;;;;;;;6.62;5.65;;;;;;;;;;4359417;32;20215;-58
2021/06/13 04:53:49;;;;;;;9.05;5.30;;;;;;;;;;4365644;32;20668;-57
2021/06/13 04:56:21;;;;;;;10.30;6.20;;;;;;;;;;4366578;32;20306;-58
2021/06/13 04:58:46;;;;;;;13.52;6.18;;;;;;;;;;4369296;32;20361;-58
2021/06/13 05:01:12;;;;;;;12.13;6.07;;;;;;;;;;4361570;32;20298;-58
2021/06/13 05:03:37;;;;;;;17.45;6.07;;;;;;;;;;4363321;32;20277;-60
2021/06/13 05:06:03;;;;;;;7.20;5.45;;;;;;;;;;4364646;32;20333;-59
2021/06/13 05:08:29;;;;;;;12.75;5.10;;;;;;;;;;4359671;32;20279;-58
2021/06/13 05:10:54;;;;;;;9.50;5.25;;;;;;;;;;4357242;32;20281;-58
2021/06/13 05:13:20;;;;;;;8.83;5.87;;;;;;;;;;4357316;32;20431;-58
2021/06/13 05:15:45;;;;;;;9.55;5.40;;;;;;;;;;4360245;32;20473;-58
2021/06/13 05:18:11;;;;;;;6.93;5.93;;;;;;;;;;4359075;32;20329;-58
2021/06/13 05:20:37;;;;;;;6.87;5.85;;;;;;;;;;4361364;32;20277;-58
2021/06/13 05:23:05;;;;;;;10.05;6.25;;;;;;;;;;4362442;32;20289;-58
2021/06/13 05:25:35;;;;;;;11.25;6.03;;;;;;;;;;4361660;32;20299;-58
2021/06/13 05:28:04;;;;;;;9.18;6.30;;;;;;;;;;4369404;32;20888;-57
2021/06/13 05:30:32;;;;;;;9.57;5.25;;;;;;;;;;4364162;32;20253;-57
2021/06/13 05:32:58;;;;;;;9.05;5.82;;;;;;;;;;4362906;32;20254;-58
2021/06/13 05:35:24;;;;;;;8.23;5.43;;;;;;;;;;4360474;32;20286;-58
2021/06/13 05:37:49;;;;;;;14.07;5.28;;;;;;;;;;4360031;32;20214;-58
2021/06/13 05:40:16;;;;;;;11.85;5.95;;;;;;;;;;4359380;32;20276;-58
2021/06/13 05:42:42;;;;;;;6.43;5.20;;;;;;;;;;4372784;32;20366;-58
2021/06/13 05:45:09;;;;;;;10.13;5.90;;;;;;;;;;4361588;32;20210;-58
2021/06/13 05:47:35;;;;;;;6.07;4.82;;;;;;;;;;4355639;32;20648;-58
2021/06/13 05:50:01;;;;;;;9.30;5.62;;;;;;;;;;4358124;32;20305;-58
2021/06/13 05:52:27;;;;;;;10.93;5.15;;;;;;;;;;4361039;32;20230;-58
2021/06/13 05:54:57;;;;;;;9.35;5.37;;;;;;;;;;4360996;32;20236;-58
2021/06/13 05:57:23;;;;;;;8.50;5.40;;;;;;;;;;4359153;32;20227;-58
2021/06/13 05:59:48;;;;;;;8.68;5.62;;;;;;;;;;4363615;32;20657;-58
2021/06/13 06:02:14;;;;;;;15.77;6.22;;;;;;;;;;4360336;32;20273;-57
2021/06/13 06:04:39;;;;;;;6.40;5.15;;;;;;;;;;4365572;32;20432;-58
2021/06/13 06:07:04;;;;;;;10.65;5.80;;;;;;;;;;4358251;32;20341;-58
2021/06/13 06:09:30;;;;;;;9.25;5.22;;;;;;;;;;4355084;32;20337;-58
2021/06/13 06:11:55;;;;;;;7.55;4.80;;;;;;;;;;4360482;32;20950;-57
2021/06/13 06:14:21;;;;;;;10.15;6.20;;;;;;;;;;4366455;32;20825;-57
2021/06/13 06:16:46;;;;;;;4.57;4.18;;;;;;;;;;4359031;32;20404;-58
2021/06/13 06:19:12;;;;;;;9.38;4.90;;;;;;;;;;4366939;32;20202;-57
2021/06/13 06:21:37;;;;;;;5.55;4.80;;;;;;;;;;4360140;32;20567;-58
2021/06/13 06:24:04;;;;;;;10.70;5.15;;;;;;;;;;4365373;32;20697;-59
2021/06/13 06:26:29;;;;;;;9.57;5.18;;;;;;;;;;4358767;32;20293;-58
2021/06/13 06:28:55;;;;;;;8.07;5.10;;;;;;;;;;4372480;32;20647;-59
2021/06/13 06:31:21;;;;;;;9.73;4.32;;;;;;;;;;4361052;32;20323;-59
2021/06/13 06:33:46;;;;;;;7.25;5.45;;;;;;;;;;4358969;32;20316;-57
2021/06/13 06:36:11;;;;;;;4.97;4.43;;;;;;;;;;4362786;32;20658;-57
2021/06/13 06:38:37;;;;;;;9.57;4.80;;;;;;;;;;4367786;32;20348;-58
2021/06/13 06:41:02;;;;;;;8.82;5.15;;;;;;;;;;4359068;32;20422;-58
2021/06/13 06:43:28;;;;;;;7.87;5.03;;;;;;;;;;4362661;32;20269;-58
2021/06/13 06:45:53;;;;;;;11.30;4.68;;;;;;;;;;4361141;32;20738;-58
2021/06/13 06:48:19;;;;;;;6.18;5.53;;;;;;;;;;4358324;32;20681;-58
2021/06/13 06:50:44;;;;;;;7.43;5.60;;;;;;;;;;4357041;32;20288;-58
2021/06/13 06:53:10;;;;;;;11.98;5.47;;;;;;;;;;4363711;32;20297;-58
2021/06/13 06:55:36;;;;;;;8.55;6.07;;;;;;;;;;4358058;32;20265;-59
2021/06/13 06:58:03;;;;;;;13.55;6.57;;;;;;;;;;4366069;32;20670;-58
2021/06/13 07:00:28;;;;;;;8.15;6.95;;;;;;;;;;4359358;32;20664;-58
2021/06/13 07:02:53;;;;;;;11.48;6.78;;;;;;;;;;4360801;32;20222;-57
2021/06/13 07:05:19;;;;;;;10.82;7.22;;;;;;;;;;4363353;32;20318;-58
2021/06/13 07:07:45;;;;;;;11.93;6.35;;;;;;;;;;4358434;32;20604;-57
2021/06/13 07:10:12;;;;;;;14.60;7.35;;;;;;;;;;4358173;32;20311;-58
2021/06/13 07:12:37;;;;;;;11.77;7.30;;;;;;;;;;4356627;32;20206;-57
2021/06/13 07:15:06;;;;;;;8.43;6.68;;;;;;;;;;4360592;32;20210;-57
2021/06/13 07:17:31;;;;;;;12.40;6.72;;;;;;;;;;4358074;32;20385;-57
2021/06/13 07:19:57;;;;;;;9.50;7.00;;;;;;;;;;4362841;32;20374;-58
2021/06/13 07:22:23;;;;;;;14.00;6.53;;;;;;;;;;4359995;32;20281;-57
2021/06/13 07:24:52;;;;;;;20.40;10.32;;;;;;;;;;4359153;32;20277;-58
2021/06/13 07:27:17;;;;;;;8.55;6.78;;;;;;;;;;4359394;32;20636;-58
2021/06/13 07:29:43;;;;;;;9.27;5.65;;;;;;;;;;4365841;32;20301;-58
2021/06/13 07:32:08;;;;;;;7.65;6.05;;;;;;;;;;4359942;32;20219;-58
2021/06/13 07:34:34;;;;;;;11.93;6.80;;;;;;;;;;4362933;32;20222;-58
2021/06/13 07:37:02;;;;;;;13.88;7.60;;;;;;;;;;4364397;32;20574;-58
2021/06/13 07:39:28;;;;;;;8.52;5.72;;;;;;;;;;4364204;32;20241;-58
2021/06/13 07:41:54;;;;;;;10.75;5.62;;;;;;;;;;4364218;32;20295;-58
2021/06/13 07:44:20;;;;;;;9.15;5.87;;;;;;;;;;4365154;32;20727;-58
2021/06/13 07:46:46;;;;;;;6.43;5.82;;;;;;;;;;4364240;32;20215;-58
2021/06/13 07:49:12;;;;;;;8.35;6.25;;;;;;;;;;4363693;32;20336;-58
2021/06/13 07:51:37;;;;;;;7.87;6.35;;;;;;;;;;4366710;32;20261;-59
2021/06/13 07:54:03;;;;;;;9.27;6.53;;;;;;;;;;4360287;32;20652;-59
2021/06/13 07:56:28;;;;;;;9.32;5.97;;;;;;;;;;4363566;32;20595;-59
2021/06/13 07:58:54;;;;;;;8.13;6.20;;;;;;;;;;4365849;32;20285;-59
2021/06/13 08:01:19;;;;;;;8.05;6.60;;;;;;;;;;4357388;32;20816;-58
2021/06/13 08:03:45;;;;;;;7.37;6.68;;;;;;;;;;4366917;32;20274;-58
2021/06/13 08:06:10;;;;;;;41.72;11.50;;;;;;;;;;4370417;32;20607;-58
2021/06/13 08:08:36;;;;;;;17.10;6.40;;;;;;;;;;4357798;32;20281;-59
2021/06/13 08:11:07;;;;;;;10.10;7.18;;;;;;;;;;4364802;32;20355;-58
2021/06/13 08:13:32;;;;;;;6.45;4.75;;;;;;;;;;4369742;32;20301;-58
2021/06/13 08:15:57;;;;;;;27.30;5.80;;;;;;;;;;4368685;32;20588;-58
2021/06/13 08:18:23;;;;;;;11.07;4.87;;;;;;;;;;4360667;32;20290;-58
2021/06/13 08:20:50;;;;;;;8.52;4.93;;;;;;;;;;4362099;32;20316;-58
2021/06/13 08:23:15;;;;;;;7.75;4.97;;;;;;;;;;4364830;32;20240;-58
2021/06/13 08:25:41;;;;;;;10.02;4.70;;;;;;;;;;4364819;32;21420;-59
2021/06/13 08:28:06;;;;;;;6.28;4.30;;;;;;;;;;4362447;32;20347;-58
2021/06/13 08:30:32;;;;;;;7.32;5.30;;;;;;;;;;4363853;32;20308;-59
2021/06/13 08:32:59;;;;;;;6.25;5.43;;;;;;;;;;4364448;32;20537;-59
2021/06/13 08:35:24;;;;;;;7.40;4.78;;;;;;;;;;4363817;32;20289;-59
2021/06/13 08:37:50;;;;;;;7.80;5.12;;;;;;;;;;4362958;32;20324;-59
2021/06/13 08:40:15;;;;;;;5.30;4.80;;;;;;;;;;4362034;32;20313;-59
2021/06/13 08:42:42;;;;;;;9.90;4.90;;;;;;;;;;4364476;32;20308;-59
2021/06/13 08:45:10;;;;;;;5.43;4.75;;;;;;;;;;4358069;32;20321;-58
2021/06/13 08:47:36;;;;;;;8.00;5.80;;;;;;;;;;4368598;32;20218;-59
2021/06/13 08:50:04;;;;;;;8.10;5.22;;;;;;;;;;4361147;32;20669;-59
2021/06/13 08:52:29;;;;;;;5.55;4.62;;;;;;;;;;4370122;32;20246;-58
2021/06/13 08:54:54;;;;;;;7.87;4.85;;;;;;;;;;4369723;32;20206;-59
2021/06/13 08:57:20;;;;;;;7.97;5.43;;;;;;;;;;4361967;32;20747;-58
2021/06/13 08:59:47;;;;;;;9.77;4.78;;;;;;;;;;4364576;32;20214;-58
2021/06/13 09:02:13;;;;;;;14.25;5.57;;;;;;;;;;4357184;32;20309;-58
2021/06/13 09:04:39;;;;;;;8.60;5.22;;;;;;;;;;4368308;32;20261;-59
2021/06/13 09:07:25;;;;;;;27.30;7.40;;;;;;;;;;4376308;32;20225;-58
2021/06/13 09:09:52;;;;;;;6.18;5.53;;;;;;;;;;4365441;32;20301;-58
2021/06/13 09:12:19;;;;;;;13.50;5.25;;;;;;;;;;4359091;32;20293;-58
2021/06/13 09:14:47;;;;;;;10.80;5.80;;;;;;;;;;4371566;32;20322;-58
2021/06/13 09:17:14;;;;;;;13.98;5.43;;;;;;;;;;4359132;32;20305;-58
2021/06/13 09:20:25;;;;;;;8.75;5.53;;;;;;;;;;4358248;32;20219;-58
2021/06/13 09:23:05;;;;;;;6.57;5.35;;;;;;;;;;4365526;32;20334;-58
2021/06/13 09:25:31;;;;;;;7.87;5.65;;;;;;;;;;4358103;32;20390;-58
2021/06/13 09:28:09;;;;;;;7.00;6.12;;;;;;;;;;4360969;32;20221;-58
2021/06/13 09:30:37;;;;;;;6.07;5.43;;;;;;;;;;4366356;32;20356;-58
2021/06/13 09:33:13;;;;;;;12.45;6.05;;;;;;;;;;4367861;32;20491;-58
2021/06/13 09:35:39;;;;;;;13.07;5.87;;;;;;;;;;4369658;32;20234;-58
2021/06/13 09:38:08;;;;;;;9.55;7.57;;;;;;;;;;4356403;32;20231;-58
2021/06/13 09:40:34;;;;;;;6.80;6.12;;;;;;;;;;4363644;32;20250;-58
2021/06/13 09:43:10;;;;;;;10.00;6.55;;;;;;;;;;4359359;32;20283;-58
2021/06/13 09:45:36;;;;;;;9.88;6.82;;;;;;;;;;4364134;32;20258;-58
2021/06/13 09:48:02;;;;;;;13.05;5.70;;;;;;;;;;4359132;32;20303;-58
2021/06/13 09:50:42;;;;;;;16.92;5.80;;;;;;;;;;4363604;32;20328;-59
2021/06/13 09:53:19;;;;;;;10.55;6.97;;;;;;;;;;4364010;32;20252;-59
2021/06/13 09:55:44;;;;;;;9.85;6.45;;;;;;;;;;4357227;32;20233;-59
2021/06/13 09:58:12;;;;;;;13.45;8.15;;;;;;;;;;4362761;32;20432;-59
2021/06/13 10:00:37;;;;;;;10.63;6.00;;;;;;;;;;4361932;32;20450;-59
2021/06/13 10:03:24;;;;;;;11.40;6.00;;;;;;;;;;4360219;32;20298;-58
2021/06/13 10:05:57;;;;;;;11.10;7.85;;;;;;;;;;4356093;32;20728;-58
2021/06/13 10:08:25;;;;;;;10.90;8.18;;;;;;;;;;4356336;32;20370;-58
2021/06/13 10:10:59;;;;;;;16.42;8.57;;;;;;;;;;4362967;32;20345;-59
2021/06/13 10:13:48;;;;;;;8.90;7.25;;;;;;;;;;4356881;32;20638;-58
2021/06/13 10:16:28;;;;;;;14.75;8.63;;;;;;;;;;4357537;32;20203;-59
2021/06/13 10:18:57;;;;;;;15.07;9.30;;;;;;;;;;4355791;32;20229;-58
2021/06/13 10:21:28;;;;;;;10.60;9.45;;;;;;;;;;4364015;32;20756;-59
2021/06/13 10:23:56;;;;;;;14.13;9.20;;;;;;;;;;4365311;32;20271;-59
2021/06/13 10:26:21;;;;;;;15.35;8.73;;;;;;;;;;4363339;32;20301;-59
2021/06/13 10:28:47;;;;;;;12.98;8.98;;;;;;;;;;4367065;32;20306;-59
2021/06/13 10:31:14;;;;;;;15.57;7.72;;;;;;;;;;4359768;32;20287;-59
2021/06/13 10:33:41;;;;;;;9.75;8.77;;;;;;;;;;4359249;32;20199;-59
2021/06/13 10:36:07;;;;;;;12.73;6.65;;;;;;;;;;4358706;32;20301;-58
2021/06/13 10:38:33;;;;;;;9.35;7.78;;;;;;;;;;4357118;32;20302;-58
2021/06/13 10:40:59;;;;;;;11.10;7.43;;;;;;;;;;4380416;32;20323;-58
2021/06/13 10:43:28;;;;;;;20.67;7.07;;;;;;;;;;4359931;32;20230;-59
2021/06/13 10:46:25;;;;;;;9.48;6.32;;;;;;;;;;4357591;32;20203;-58
2021/06/13 10:48:53;;;;;;;11.93;7.70;;;;;;;;;;4358299;32;20297;-58
2021/06/13 10:51:38;;;;;;;10.35;7.07;;;;;;;;;;4361592;32;20229;-58
2021/06/13 10:54:26;;;;;;;11.48;8.52;;;;;;;;;;4366229;32;20253;-58
2021/06/13 10:57:05;;;;;;;13.13;7.45;;;;;;;;;;4362112;32;20638;-58
2021/06/13 10:59:42;;;;;;;10.25;7.78;;;;;;;;;;4362110;32;20354;-58
2021/06/13 11:02:11;;;;;;;12.35;8.68;;;;;;;;;;4359315;32;20657;-58
2021/06/13 11:04:55;;;;;;;13.32;8.10;;;;;;;;;;4362027;32;20368;-58
2021/06/13 11:07:36;;;;;;;20.92;10.23;;;;;;;;;;4360095;32;20344;-59
2021/06/13 11:10:37;;;;;;;16.87;9.48;;;;;;;;;;4363413;32;20300;-59
2021/06/13 11:12:56;;;;;;;12.95;8.77;;;;;;;;;;4362181;32;20233;-59
2021/06/13 11:15:38;;;;;;;17.87;8.93;;;;;;;;;;4358051;32;20317;-59
2021/06/13 11:18:23;;;;;;;21.08;15.32;;;;;;;;;;4369691;32;20234;-58
2021/06/13 11:21:01;;;;;;;19.33;12.65;;;;;;;;;;4358747;32;20305;-58
2021/06/13 11:23:27;;;;;;;18.48;13.32;;;;;;;;;;4364442;32;20279;-58
2021/06/13 11:25:56;;;;;;;10.27;8.32;;;;;;;;;;4365441;32;20464;-58
2021/06/13 11:28:30;;;;;;;10.63;7.97;;;;;;;;;;4359850;32;20778;-57
2021/06/13 11:31:08;;;;;;;7.05;4.57;;;;;;;;;;4363455;32;20639;-58
2021/06/13 11:33:41;;;;;;;6.03;4.28;;;;;;;;;;4363838;32;20210;-58
2021/06/13 11:36:33;;;;;;;6.55;4.95;;;;;;;;;;4363718;32;20253;-58
2021/06/13 11:39:01;;;;;;;17.48;3.95;;;;;;;;;;4358529;32;20331;-59
2021/06/13 11:41:34;;;;;;;3.50;2.33;;;;;;;;;;4364127;32;20284;-59
2021/06/13 11:44:01;;;;;;;22.05;3.75;;;;;;;;;;4364328;32;20232;-59
2021/06/13 11:46:34;;;;;;;8.65;3.22;;;;;;;;;;4359504;32;20307;-58
2021/06/13 11:49:02;;;;;;;13.57;8.40;;;;;;;;;;4360720;32;20325;-60
2021/06/13 11:51:28;;;;;;;13.95;9.55;;;;;;;;;;4355225;32;20305;-60
2021/06/13 11:54:00;;;;;;;12.98;3.65;;;;;;;;;;4365026;32;20264;-60
2021/06/13 11:56:35;;;;;;;3.55;2.42;;;;;;;;;;4360677;32;20373;-58
2021/06/13 11:59:21;;;;;;;3.55;3.00;;;;;;;;;;4363103;32;20328;-58
2021/06/13 12:02:01;;;;;;;5.20;3.20;;;;;;;;;;4376302;32;20328;-59
2021/06/13 12:04:29;;;;;;;6.10;2.22;;;;;;;;;;4364443;32;20381;-58
2021/06/13 12:06:56;;;;;;;2.87;1.92;;;;;;;;;;4362596;32;20373;-59
2021/06/13 12:09:23;;;;;;;4.78;2.03;;;;;;;;;;4360978;32;20219;-59
2021/06/13 12:11:56;;;;;;;6.53;2.58;;;;;;;;;;4357361;32;20246;-58
2021/06/13 12:14:56;;;;;;;4.20;2.22;;;;;;;;;;4361149;32;20650;-58
2021/06/13 12:17:25;;;;;;;8.50;2.22;;;;;;;;;;4356372;32;20252;-58
2021/06/13 12:19:56;;;;;;;4.28;2.28;;;;;;;;;;4364924;32;20294;-58
2021/06/13 12:27:52;;;;;;;4.47;3.10;;;;;;;;;;4359298;32;20206;-60
2021/06/13 12:30:21;;;;;;;2.65;2.40;;;;;;;;;;4362278;32;20387;-60
2021/06/13 12:32:57;;;;;;;2.62;2.33;;;;;;;;;;4365840;32;20701;-60
2021/06/13 12:35:26;;;;;;;3.37;2.22;;;;;;;;;;4361666;32;20812;-60
2021/06/13 12:38:17;;;;;;;7.22;5.00;;;;;;;;;;4360766;32;20353;-59
2021/06/13 12:40:49;;;;;;;9.13;4.65;;;;;;;;;;4358044;32;20322;-60
2021/06/13 12:43:15;;;;;;;5.10;2.42;;;;;;;;;;4359975;32;20674;-59
2021/06/13 12:45:43;;;;;;;11.93;3.53;;;;;;;;;;4365189;32;20285;-60
2021/06/13 12:48:10;;;;;;;4.22;2.58;;;;;;;;;;4370871;32;20947;-60
2021/06/13 12:50:45;;;;;;;3.20;2.58;;;;;;;;;;4360368;32;20293;-59
2021/06/13 12:53:15;;;;;;;4.25;3.28;;;;;;;;;;4359057;32;20390;-59
2021/06/13 12:55:42;;;;;;;5.10;2.78;;;;;;;;;;4359333;32;20285;-60
2021/06/13 12:58:11;;;;;;;7.18;2.83;;;;;;;;;;4361607;32;20320;-60
2021/06/13 13:00:36;;;;;;;13.18;4.40;;;;;;;;;;4358605;32;20211;-60
2021/06/13 13:03:09;;;;;;;12.50;3.10;;;;;;;;;;4367426;32;20296;-59
2021/06/13 13:05:36;;;;;;;4.18;2.78;;;;;;;;;;4364105;32;20272;-60
2021/06/13 13:08:19;;;;;;;14.23;3.05;;;;;;;;;;4367282;32;20406;-60
2021/06/13 13:10:55;;;;;;;12.15;3.67;;;;;;;;;;4362207;32;20265;-60
2021/06/13 13:13:29;;;;;;;7.25;4.07;;;;;;;;;;4356321;32;20567;-60
2021/06/13 13:15:55;;;;;;;8.00;3.50;;;;;;;;;;4365445;32;20571;-59
2021/06/13 13:18:21;;;;;;;8.77;3.42;;;;;;;;;;4366048;32;20234;-60
2021/06/13 13:20:51;;;;;;;3.65;2.97;;;;;;;;;;4359813;32;20756;-60
2021/06/13 13:23:17;;;;;;;7.78;2.97;;;;;;;;;;4361838;32;20629;-60
2021/06/13 13:25:46;;;;;;;11.80;3.40;;;;;;;;;;4364591;32;20333;-61
2021/06/13 13:28:28;;;;;;;7.85;3.33;;;;;;;;;;4361812;32;20226;-60
2021/06/13 13:31:14;;;;;;;5.78;3.50;;;;;;;;;;4361025;32;20207;-59
2021/06/13 13:33:41;;;;;;;6.40;3.33;;;;;;;;;;4357765;32;20253;-60
2021/06/13 13:36:12;;;;;;;8.77;4.75;;;;;;;;;;4362588;32;20460;-59
2021/06/13 13:38:46;;;;;;;10.52;4.85;;;;;;;;;;4360803;32;20356;-60
2021/06/13 13:41:17;;;;;;;9.82;5.20;;;;;;;;;;4363613;32;20245;-59
2021/06/13 13:44:06;;;;;;;8.45;5.20;;;;;;;;;;4362126;32;20218;-59
2021/06/13 13:46:39;;;;;;;9.10;4.90;;;;;;;;;;4362607;32;20705;-59
2021/06/13 13:49:08;;;;;;;11.32;4.72;;;;;;;;;;4368329;32;20296;-58
2021/06/13 13:51:48;;;;;;;8.00;4.95;;;;;;;;;;4363954;32;20458;-58
2021/06/13 13:54:32;;;;;;;4.90;4.07;;;;;;;;;;4360859;32;20708;-59
2021/06/13 13:57:06;;;;;;;8.50;5.37;;;;;;;;;;4361905;32;20320;-59
2021/06/13 13:59:35;;;;;;;11.20;6.47;;;;;;;;;;4363185;32;20316;-58
2021/06/13 14:02:01;;;;;;;7.22;3.50;;;;;;;;;;4363163;32;20360;-59
2021/06/13 14:04:27;;;;;;;4.45;3.97;;;;;;;;;;4360439;32;20333;-59
2021/06/13 14:06:56;;;;;;;7.37;3.30;;;;;;;;;;4356326;32;20349;-60
2021/06/13 14:09:22;;;;;;;8.93;3.47;;;;;;;;;;4356264;32;20242;-60
2021/06/13 14:11:48;;;;;;;11.02;4.05;;;;;;;;;;4355951;32;20328;-60
2021/06/13 14:14:17;;;;;;;7.47;3.28;;;;;;;;;;4360340;32;20210;-59
2021/06/13 14:16:42;;;;;;;6.47;2.60;;;;;;;;;;4364085;32;20328;-59
2021/06/13 14:19:07;;;;;;;3.22;2.42;;;;;;;;;;4364429;32;20330;-59
2021/06/13 14:21:33;;;;;;;5.10;2.80;;;;;;;;;;4359358;32;20501;-60
2021/06/13 14:23:59;;;;;;;5.37;2.85;;;;;;;;;;4362829;32;20252;-60
2021/06/13 14:26:24;;;;;;;6.00;3.40;;;;;;;;;;4355807;32;20215;-60
2021/06/13 14:28:50;;;;;;;4.43;3.00;;;;;;;;;;4359367;32;20211;-59
2021/06/13 14:31:18;;;;;;;5.62;3.05;;;;;;;;;;4361997;32;20254;-59
2021/06/13 14:33:43;;;;;;;4.43;2.97;;;;;;;;;;4361727;32;21131;-59
2021/06/13 14:36:09;;;;;;;14.13;3.30;;;;;;;;;;4371482;32;20327;-60
2021/06/13 14:38:36;;;;;;;7.40;2.87;;;;;;;;;;4363656;32;20733;-59
2021/06/13 14:41:03;;;;;;;5.90;2.55;;;;;;;;;;4364798;32;20264;-59
2021/06/13 14:43:29;;;;;;;3.75;2.55;;;;;;;;;;4362904;32;20269;-60
2021/06/13 14:45:54;;;;;;;5.15;2.20;;;;;;;;;;4362064;32;20278;-59
2021/06/13 14:48:22;;;;;;;3.75;2.53;;;;;;;;;;4367951;32;20232;-59
2021/06/13 14:50:48;;;;;;;14.52;3.92;;;;;;;;;;4369100;32;20320;-61
2021/06/13 14:53:14;;;;;;;5.40;3.17;;;;;;;;;;4361050;32;20293;-59
2021/06/13 14:55:39;;;;;;;4.70;3.00;;;;;;;;;;4366306;32;20292;-59